Time;durP1;ratioP1;P1;durP2;ratioP2;P2;SDS_P1;SDS_P2;PMS_P1;PMS_P2;Temp;Humidity;BMP_temperature;BMP_pressure;BME280_temperature;BME280_humidity;BME280_pressure;Samples;Min_cycle;Max_cycle;Signal;HPM_P1;HPM_P2
2022/07/09 00:06:46;;;;;;;3.47;1.70;;;17.30;99.90;;;;;;20928266;28;20039;-39
2022/07/09 00:16:47;;;;;;;3.78;1.88;;;17.10;99.90;;;;;;20905885;28;20126;-39
2022/07/09 00:26:48;;;;;;;3.17;1.58;;;17.10;99.90;;;;;;20902337;28;20033;-39
2022/07/09 00:36:49;;;;;;;4.20;1.65;;;17.00;99.90;;;;;;20954025;28;20088;-39
2022/07/09 00:46:50;;;;;;;4.07;2.17;;;16.90;99.90;;;;;;21065303;28;20707;-39
2022/07/09 00:56:54;;;;;;;4.07;1.92;;;16.90;99.90;;;;;;21044002;28;20929;-39
2022/07/09 01:06:57;;;;;;;8.32;2.70;;;16.80;99.90;;;;;;21077623;28;20155;-39
2022/07/09 01:17:01;;;;;;;4.78;2.08;;;16.70;99.90;;;;;;21065341;28;20344;-39
2022/07/09 01:27:02;;;;;;;8.07;3.17;;;16.60;99.90;;;;;;21062384;28;20039;-39
2022/07/09 01:37:03;;;;;;;7.57;3.35;;;16.60;99.90;;;;;;21053985;28;20048;-39
2022/07/09 01:47:04;;;;;;;5.15;2.17;;;16.50;99.90;;;;;;21060520;28;20043;-39
2022/07/09 01:57:06;;;;;;;8.63;3.03;;;16.50;99.90;;;;;;21088355;27;20128;-39
2022/07/09 02:07:07;;;;;;;5.93;2.40;;;16.50;99.90;;;;;;21082073;27;20035;-39
2022/07/09 02:17:08;;;;;;;5.70;2.95;;;16.40;99.90;;;;;;21074820;28;20036;-39
2022/07/09 02:27:09;;;;;;;5.05;2.35;;;16.40;99.90;;;;;;21082378;28;20413;-39
2022/07/09 02:37:10;;;;;;;4.40;2.70;;;16.30;99.90;;;;;;21082968;28;20043;-39
2022/07/09 02:47:11;;;;;;;6.65;3.05;;;16.40;99.90;;;;;;21073007;27;20264;-39
2022/07/09 02:57:13;;;;;;;8.98;4.10;;;16.50;99.90;;;;;;21093006;27;20062;-39
2022/07/09 03:07:14;;;;;;;5.88;3.28;;;16.50;99.90;;;;;;21083867;27;20142;-39
2022/07/09 03:17:15;;;;;;;7.75;3.65;;;16.40;99.90;;;;;;21085945;28;20051;-39
2022/07/09 03:27:16;;;;;;;4.38;2.95;;;16.40;99.90;;;;;;21082406;27;20495;-39
2022/07/09 03:37:17;;;;;;;5.55;2.60;;;16.40;99.90;;;;;;21061510;28;20139;-39
2022/07/09 03:47:18;;;;;;;6.75;2.90;;;16.50;99.90;;;;;;21084559;28;20035;-39
2022/07/09 03:57:19;;;;;;;4.72;2.40;;;16.60;99.90;;;;;;21087630;27;20403;-39
2022/07/09 04:07:20;;;;;;;4.18;2.22;;;16.60;99.90;;;;;;21066751;28;20510;-39
2022/07/09 04:17:21;;;;;;;5.72;2.55;;;16.60;99.90;;;;;;21077438;28;20044;-39
2022/07/09 04:27:22;;;;;;;4.88;2.78;;;16.60;99.90;;;;;;21083434;28;20036;-39
2022/07/09 04:37:23;;;;;;;6.95;2.35;;;16.70;99.90;;;;;;21082118;28;20044;-39
2022/07/09 04:47:24;;;;;;;5.28;3.05;;;16.70;99.90;;;;;;21073197;28;20121;-39
2022/07/09 04:57:25;;;;;;;4.72;2.60;;;16.70;99.90;;;;;;21070671;28;20414;-39
2022/07/09 05:07:26;;;;;;;6.57;3.30;;;16.90;99.90;;;;;;21072736;28;20039;-39
2022/07/09 05:17:27;;;;;;;6.43;2.50;;;16.90;99.90;;;;;;21066956;28;20063;-39
2022/07/09 05:27:28;;;;;;;5.70;3.22;;;17.00;99.90;;;;;;21088671;27;20031;-39
2022/07/09 05:37:29;;;;;;;6.25;3.42;;;17.10;99.90;;;;;;21096586;27;20501;-39
2022/07/09 05:47:31;;;;;;;6.80;2.95;;;17.20;99.90;;;;;;21094306;28;20062;-39
2022/07/09 05:57:32;;;;;;;6.90;3.25;;;17.30;99.90;;;;;;21102373;27;20112;-39
2022/07/09 06:07:33;;;;;;;3.65;2.10;;;17.30;99.90;;;;;;21066526;27;20106;-39
2022/07/09 06:17:34;;;;;;;5.88;2.88;;;17.40;99.90;;;;;;21085652;27;20120;-39
2022/07/09 06:27:36;;;;;;;4.38;2.58;;;17.70;99.90;;;;;;21095394;28;20035;-39
2022/07/09 06:37:37;;;;;;;4.03;1.95;;;17.80;99.90;;;;;;21069002;27;20071;-39
2022/07/09 06:47:38;;;;;;;4.47;1.92;;;17.90;99.90;;;;;;21084969;28;20130;-39
2022/07/09 06:57:39;;;;;;;4.45;1.95;;;18.20;99.90;;;;;;21096682;28;20044;-39
2022/07/09 07:07:40;;;;;;;4.25;1.50;;;18.50;99.90;;;;;;21091543;28;20036;-39
2022/07/09 07:17:41;;;;;;;3.90;1.67;;;18.90;99.90;;;;;;21085667;27;20039;-39
2022/07/09 07:27:42;;;;;;;2.67;1.38;;;19.20;99.90;;;;;;21118388;28;20097;-39
2022/07/09 07:37:43;;;;;;;3.25;1.60;;;19.40;99.90;;;;;;21086816;28;20048;-39
2022/07/09 07:47:47;;;;;;;2.28;1.02;;;19.40;99.90;;;;;;21084901;27;20036;-39
2022/07/09 07:57:48;;;;;;;2.97;1.25;;;19.30;99.90;;;;;;21073060;27;20536;-39
2022/07/09 08:07:49;;;;;;;1.33;0.77;;;19.40;99.90;;;;;;21040222;28;20614;-39
2022/07/09 08:17:50;;;;;;;0.90;0.38;;;19.60;99.90;;;;;;21060891;28;20402;-39
2022/07/09 08:27:51;;;;;;;1.05;0.40;;;19.70;99.90;;;;;;20993926;28;20548;-40
2022/07/09 08:37:53;;;;;;;1.85;0.70;;;20.00;99.90;;;;;;21032214;28;20044;-39
2022/07/09 08:47:54;;;;;;;1.33;0.40;;;20.00;99.90;;;;;;21054410;28;20060;-39
2022/07/09 08:57:55;;;;;;;0.65;0.20;;;20.00;99.90;;;;;;21064333;27;20190;-39
2022/07/09 09:07:56;;;;;;;0.57;0.25;;;20.30;99.90;;;;;;21063545;27;20263;-40
2022/07/09 09:17:57;;;;;;;0.82;0.38;;;20.60;99.90;;;;;;21055493;27;20063;-39
2022/07/09 09:27:59;;;;;;;0.80;0.40;;;20.80;99.90;;;;;;21057432;27;20592;-39
2022/07/09 09:38:00;;;;;;;1.40;0.45;;;21.20;99.90;;;;;;21044845;27;20139;-40
2022/07/09 09:48:04;;;;;;;0.60;0.22;;;21.40;99.90;;;;;;21060536;27;20027;-39
2022/07/09 09:58:07;;;;;;;0.30;0.17;;;21.30;99.90;;;;;;21045977;27;20093;-40
2022/07/09 10:08:09;;;;;;;0.40;0.20;;;21.00;99.90;;;;;;21062241;28;20056;-40
2022/07/09 10:18:11;;;;;;;1.33;0.22;;;20.90;99.90;;;;;;21065483;27;20208;-40
2022/07/09 10:28:16;;;;;;;0.47;0.20;;;20.60;99.90;;;;;;21082262;28;20097;-40
2022/07/09 10:38:19;;;;;;;0.50;0.10;;;20.30;99.90;;;;;;21076065;28;20152;-39
2022/07/09 10:48:20;;;;;;;0.10;0.10;;;20.20;99.90;;;;;;21079880;28;20112;-39
2022/07/09 10:58:24;;;;;;;1.15;0.38;;;20.70;99.90;;;;;;21056497;27;20051;-40
2022/07/09 11:08:25;;;;;;;0.55;0.17;;;21.00;99.90;;;;;;21068360;27;20035;-40
2022/07/09 11:18:28;;;;;;;0.68;0.35;;;21.20;99.90;;;;;;21061649;28;20101;-40
2022/07/09 11:28:29;;;;;;;0.75;0.40;;;21.30;99.90;;;;;;21056584;27;20044;-39
2022/07/09 11:38:30;;;;;;;0.50;0.20;;;21.10;99.90;;;;;;21026787;28;20128;-40
2022/07/09 11:48:31;;;;;;;2.38;0.70;;;21.20;99.90;;;;;;21067081;27;20031;-40
2022/07/09 11:58:32;;;;;;;2.28;0.80;;;21.70;99.90;;;;;;21095014;28;20039;-39
2022/07/09 12:08:33;;;;;;;1.08;0.40;;;22.00;99.90;;;;;;21052479;28;20783;-40
2022/07/09 12:18:34;;;;;;;0.77;0.30;;;21.80;99.90;;;;;;21030191;27;20429;-40
2022/07/09 12:28:35;;;;;;;1.95;0.22;;;21.60;99.90;;;;;;21086538;27;20419;-39
2022/07/09 12:38:36;;;;;;;0.60;0.20;;;21.80;99.90;;;;;;21055510;28;20096;-40
2022/07/09 12:48:39;;;;;;;0.52;0.20;;;22.70;99.90;;;;;;21037477;28;20055;-40
2022/07/09 12:58:40;;;;;;;2.63;0.20;;;22.70;99.90;;;;;;21060072;28;20044;-40
2022/07/09 13:08:41;;;;;;;1.02;0.30;;;22.70;99.90;;;;;;21059385;28;20081;-41
2022/07/09 13:18:42;;;;;;;0.82;0.35;;;23.00;99.90;;;;;;21043574;28;20044;-40
2022/07/09 13:28:43;;;;;;;1.17;0.60;;;23.20;99.90;;;;;;21047224;28;20244;-40
2022/07/09 13:38:44;;;;;;;2.25;0.55;;;22.30;99.90;;;;;;21059737;28;20105;-40
2022/07/09 13:48:45;;;;;;;1.70;0.47;;;21.20;99.90;;;;;;21041108;27;20415;-40
2022/07/09 13:58:46;;;;;;;1.08;0.65;;;21.10;99.90;;;;;;21064678;27;20048;-40
2022/07/09 14:08:47;;;;;;;0.95;0.57;;;20.80;99.90;;;;;;21064890;27;20035;-40
2022/07/09 14:18:48;;;;;;;0.60;0.20;;;20.90;99.90;;;;;;21069223;27;20036;-39
2022/07/09 14:28:49;;;;;;;1.50;0.30;;;21.30;99.90;;;;;;21085286;28;20055;-40
2022/07/09 14:38:50;;;;;;;0.70;0.30;;;21.30;99.90;;;;;;21065319;28;20056;-40
2022/07/09 14:48:51;;;;;;;1.02;0.30;;;21.50;99.90;;;;;;21032619;27;21705;-40
2022/07/09 14:58:52;;;;;;;1.15;0.40;;;21.00;99.90;;;;;;21047313;27;20093;-40
2022/07/09 15:08:53;;;;;;;0.68;0.30;;;21.00;99.90;;;;;;21077398;28;20131;-39
2022/07/09 15:18:54;;;;;;;0.68;0.28;;;21.10;99.90;;;;;;21095382;28;20183;-40
2022/07/09 15:28:55;;;;;;;1.52;0.47;;;21.00;99.90;;;;;;21080222;28;20043;-40
2022/07/09 15:38:56;;;;;;;1.10;0.30;;;20.70;99.90;;;;;;21087653;27;20074;-40
2022/07/09 15:48:57;;;;;;;1.05;0.43;;;20.50;99.90;;;;;;21089333;27;20028;-40
2022/07/09 15:58:58;;;;;;;1.10;0.32;;;20.40;99.90;;;;;;21054593;28;20487;-40
2022/07/09 16:08:59;;;;;;;4.18;0.50;;;20.10;99.90;;;;;;21065269;28;20407;-40
2022/07/09 16:19:00;;;;;;;1.13;0.47;;;20.00;99.90;;;;;;21097633;27;20100;-40
2022/07/09 16:29:02;;;;;;;1.58;0.50;;;20.00;99.90;;;;;;21058181;28;20040;-40
2022/07/09 16:39:03;;;;;;;1.48;0.40;;;19.50;99.90;;;;;;21051943;28;20453;-40
2022/07/09 16:49:04;;;;;;;1.40;0.50;;;19.30;99.90;;;;;;21043604;28;20640;-40
2022/07/09 16:59:06;;;;;;;0.73;0.30;;;19.30;99.90;;;;;;21003214;28;20481;-40
2022/07/09 17:09:07;;;;;;;6.88;0.30;;;19.40;99.90;;;;;;21054590;28;20122;-40
2022/07/09 17:19:08;;;;;;;0.77;0.30;;;19.40;99.90;;;;;;21061647;28;20117;-40
2022/07/09 17:29:09;;;;;;;0.60;0.20;;;19.10;99.90;;;;;;21004096;27;20040;-39
2022/07/09 17:39:11;;;;;;;0.82;0.25;;;19.00;99.90;;;;;;21016171;27;22195;-40
2022/07/09 17:49:12;;;;;;;1.88;0.40;;;18.90;99.90;;;;;;21044593;27;20260;-39
2022/07/09 17:59:13;;;;;;;0.80;0.30;;;18.60;99.90;;;;;;21065598;27;20048;-40
2022/07/09 18:09:15;;;;;;;1.25;0.30;;;18.40;99.90;;;;;;21055475;27;20055;-39
2022/07/09 18:19:16;;;;;;;1.25;0.25;;;18.30;99.90;;;;;;21047611;27;20126;-39
2022/07/09 18:29:17;;;;;;;0.75;0.20;;;18.10;99.90;;;;;;21065208;27;20188;-40
2022/07/09 18:39:18;;;;;;;3.58;0.80;;;18.00;99.90;;;;;;21065350;27;20074;-40
2022/07/09 18:49:19;;;;;;;0.65;0.20;;;17.90;99.90;;;;;;21062550;28;20110;-40
2022/07/09 18:59:20;;;;;;;1.00;0.30;;;17.80;99.90;;;;;;21069299;28;20047;-40
2022/07/09 19:09:22;;;;;;;1.27;0.20;;;17.60;99.90;;;;;;21039425;27;20046;-40
2022/07/09 19:19:23;;;;;;;5.65;1.20;;;17.50;99.90;;;;;;21048862;28;20176;-40
2022/07/09 19:29:24;;;;;;;0.47;0.10;;;17.30;99.90;;;;;;21031910;28;20052;-40
2022/07/09 19:39:25;;;;;;;2.65;0.32;;;17.20;99.90;;;;;;21042111;27;20172;-40
2022/07/09 19:49:26;;;;;;;1.00;0.45;;;17.00;99.90;;;;;;21055968;27;20036;-47
2022/07/09 19:59:27;;;;;;;1.15;0.40;;;16.80;99.90;;;;;;21050317;28;20055;-39
2022/07/09 20:09:28;;;;;;;0.60;0.40;;;16.60;99.90;;;;;;21020651;27;20071;-39
2022/07/09 20:19:29;;;;;;;0.20;0.10;;;16.50;99.90;;;;;;21000016;28;20627;-39
2022/07/09 20:29:30;;;;;;;0.75;0.20;;;16.40;99.90;;;;;;21038431;27;20198;-40
2022/07/09 20:39:31;;;;;;;0.50;0.15;;;16.20;99.90;;;;;;21040353;28;20069;-39
2022/07/09 20:49:32;;;;;;;0.55;0.15;;;16.20;99.90;;;;;;21047896;28;20035;-40
2022/07/09 20:59:33;;;;;;;0.70;0.20;;;16.00;99.90;;;;;;21006239;28;20109;-39
2022/07/09 21:09:34;;;;;;;0.43;0.17;;;15.90;99.90;;;;;;21046871;28;20035;-39
2022/07/09 21:19:35;;;;;;;1.42;0.95;;;15.80;99.90;;;;;;21072747;28;20035;-40
2022/07/09 21:29:36;;;;;;;0.50;0.20;;;15.80;99.90;;;;;;21053089;28;20047;-39
2022/07/09 21:39:37;;;;;;;0.95;0.32;;;15.80;99.90;;;;;;21061082;28;20105;-40
2022/07/09 21:49:38;;;;;;;0.43;0.20;;;15.70;99.90;;;;;;21047854;28;20297;-40
2022/07/09 21:59:39;;;;;;;0.80;0.20;;;15.70;99.90;;;;;;21047570;28;22401;-39
2022/07/09 22:09:40;;;;;;;0.63;0.20;;;15.60;99.90;;;;;;21065030;28;20250;-39
2022/07/09 22:19:44;;;;;;;2.28;0.35;;;15.40;99.90;;;;;;21079729;27;20071;-39
2022/07/09 22:29:45;;;;;;;0.77;0.30;;;15.40;99.90;;;;;;21046899;28;21872;-39
2022/07/09 22:39:46;;;;;;;0.30;0.20;;;15.40;99.90;;;;;;21042416;27;20044;-39
2022/07/09 22:49:47;;;;;;;1.13;0.57;;;15.50;99.90;;;;;;21040875;27;20031;-39
2022/07/09 22:59:48;;;;;;;1.02;0.28;;;15.60;99.90;;;;;;21052500;27;20540;-39
2022/07/09 23:09:49;;;;;;;0.77;0.30;;;15.60;99.90;;;;;;21069432;28;20036;-39
2022/07/09 23:19:50;;;;;;;1.10;0.20;;;15.70;99.90;;;;;;21069300;27;20042;-39
2022/07/09 23:29:51;;;;;;;2.50;0.43;;;15.60;99.90;;;;;;21055042;27;20034;-39
2022/07/09 23:39:52;;;;;;;0.88;0.20;;;15.70;99.90;;;;;;21019929;27;20553;-39
2022/07/09 23:49:53;;;;;;;1.45;0.38;;;15.70;99.90;;;;;;21018263;27;20540;-39
2022/07/09 23:59:54;;;;;;;1.33;0.45;;;15.70;99.90;;;;;;21021675;27;20473;-39
